sensor_id;sensor_type;location;lat;lon;timestamp;pressure;altitude;pressure_sealevel;temperature;humidity
12991;BME280;6560;57.692;11.958;2023-06-14T00:01:53;101912.28;;;13.57;100.00
12991;BME280;6560;57.692;11.958;2023-06-14T00:04:20;101912.47;;;13.79;100.00
12991;BME280;6560;57.692;11.958;2023-06-14T00:06:47;101916.59;;;14.08;100.00
12991;BME280;6560;57.692;11.958;2023-06-14T00:09:13;101903.66;;;13.82;100.00
12991;BME280;6560;57.692;11.958;2023-06-14T00:11:41;101881.41;;;13.67;100.00
12991;BME280;6560;57.692;11.958;2023-06-14T00:14:07;101916.47;;;14.05;100.00
12991;BME280;6560;57.692;11.958;2023-06-14T00:16:32;101921.03;;;14.08;100.00
12991;BME280;6560;57.692;11.958;2023-06-14T00:18:59;101913.13;;;13.93;100.00
12991;BME280;6560;57.692;11.958;2023-06-14T00:21:24;101913.88;;;13.71;100.00
12991;BME280;6560;57.692;11.958;2023-06-14T00:23:50;101905.91;;;13.37;100.00
12991;BME280;6560;57.692;11.958;2023-06-14T00:26:15;101923.03;;;13.39;100.00
12991;BME280;6560;57.692;11.958;2023-06-14T00:28:41;101884.03;;;13.12;100.00
12991;BME280;6560;57.692;11.958;2023-06-14T00:31:07;101904.78;;;12.98;100.00
12991;BME280;6560;57.692;11.958;2023-06-14T00:33:32;101916.22;;;12.78;100.00
12991;BME280;6560;57.692;11.958;2023-06-14T00:35:58;101915.19;;;12.58;100.00
12991;BME280;6560;57.692;11.958;2023-06-14T00:38:23;101914.38;;;12.77;100.00
12991;BME280;6560;57.692;11.958;2023-06-14T00:40:49;101917.91;;;12.76;100.00
12991;BME280;6560;57.692;11.958;2023-06-14T00:43:14;101909.97;;;12.61;100.00
12991;BME280;6560;57.692;11.958;2023-06-14T00:45:40;101918.25;;;12.66;100.00
12991;BME280;6560;57.692;11.958;2023-06-14T00:48:05;101878.25;;;12.37;100.00
12991;BME280;6560;57.692;11.958;2023-06-14T00:50:32;101908.19;;;12.62;100.00
12991;BME280;6560;57.692;11.958;2023-06-14T00:52:59;101913.97;;;12.86;100.00
12991;BME280;6560;57.692;11.958;2023-06-14T00:55:26;101913.88;;;12.34;100.00
12991;BME280;6560;57.692;11.958;2023-06-14T00:57:53;101878.13;;;12.34;100.00
12991;BME280;6560;57.692;11.958;2023-06-14T01:00:21;101915.31;;;12.61;100.00
12991;BME280;6560;57.692;11.958;2023-06-14T01:02:47;101906.13;;;12.56;100.00
12991;BME280;6560;57.692;11.958;2023-06-14T01:05:16;101911.38;;;12.55;100.00
12991;BME280;6560;57.692;11.958;2023-06-14T01:07:55;101906.44;;;12.62;100.00
12991;BME280;6560;57.692;11.958;2023-06-14T01:11:32;101908.66;;;12.53;100.00
12991;BME280;6560;57.692;11.958;2023-06-14T01:13:34;101911.34;;;12.37;100.00
12991;BME280;6560;57.692;11.958;2023-06-14T01:16:01;101912.47;;;12.26;100.00
12991;BME280;6560;57.692;11.958;2023-06-14T01:18:30;101905.28;;;12.25;100.00
12991;BME280;6560;57.692;11.958;2023-06-14T01:20:57;101889.28;;;12.26;100.00
12991;BME280;6560;57.692;11.958;2023-06-14T01:23:24;101912.47;;;12.10;100.00
12991;BME280;6560;57.692;11.958;2023-06-14T01:25:50;101913.72;;;12.00;100.00
12991;BME280;6560;57.692;11.958;2023-06-14T01:28:21;101913.88;;;12.68;100.00
12991;BME280;6560;57.692;11.958;2023-06-14T01:30:49;101917.38;;;11.40;100.00
12991;BME280;6560;57.692;11.958;2023-06-14T01:33:24;101916.31;;;11.99;100.00
12991;BME280;6560;57.692;11.958;2023-06-14T01:35:52;101922.19;;;11.31;100.00
12991;BME280;6560;57.692;11.958;2023-06-14T01:38:21;101916.25;;;11.82;100.00
12991;BME280;6560;57.692;11.958;2023-06-14T01:40:50;101925.16;;;11.98;100.00
12991;BME280;6560;57.692;11.958;2023-06-14T01:43:18;101926.50;;;11.89;100.00
12991;BME280;6560;57.692;11.958;2023-06-14T01:45:45;101930.78;;;12.02;100.00
12991;BME280;6560;57.692;11.958;2023-06-14T01:48:12;101935.59;;;12.56;100.00
12991;BME280;6560;57.692;11.958;2023-06-14T01:50:38;101925.53;;;12.68;100.00
12991;BME280;6560;57.692;11.958;2023-06-14T01:53:06;101922.72;;;12.33;100.00
12991;BME280;6560;57.692;11.958;2023-06-14T01:55:33;101926.28;;;11.70;100.00
12991;BME280;6560;57.692;11.958;2023-06-14T01:58:05;101928.53;;;12.10;100.00
12991;BME280;6560;57.692;11.958;2023-06-14T02:00:30;101928.63;;;12.11;100.00
12991;BME280;6560;57.692;11.958;2023-06-14T02:02:56;101875.31;;;12.32;100.00
12991;BME280;6560;57.692;11.958;2023-06-14T02:05:22;101922.09;;;12.55;100.00
12991;BME280;6560;57.692;11.958;2023-06-14T02:07:47;101932.78;;;11.30;100.00
12991;BME280;6560;57.692;11.958;2023-06-14T02:10:13;101937.88;;;11.25;100.00
12991;BME280;6560;57.692;11.958;2023-06-14T02:12:39;101903.41;;;11.00;100.00
12991;BME280;6560;57.692;11.958;2023-06-14T02:15:05;101886.38;;;12.38;100.00
12991;BME280;6560;57.692;11.958;2023-06-14T02:17:32;101938.06;;;10.84;100.00
12991;BME280;6560;57.692;11.958;2023-06-14T02:19:58;101930.44;;;11.96;100.00
12991;BME280;6560;57.692;11.958;2023-06-14T02:22:23;101934.75;;;12.25;100.00
12991;BME280;6560;57.692;11.958;2023-06-14T02:24:49;101925.84;;;12.10;100.00
12991;BME280;6560;57.692;11.958;2023-06-14T02:27:15;101928.94;;;12.82;100.00
12991;BME280;6560;57.692;11.958;2023-06-14T02:29:41;101929.75;;;12.97;100.00
12991;BME280;6560;57.692;11.958;2023-06-14T02:32:06;101925.53;;;12.68;100.00
12991;BME280;6560;57.692;11.958;2023-06-14T02:34:34;101923.34;;;12.61;100.00
12991;BME280;6560;57.692;11.958;2023-06-14T02:37:00;101914.97;;;12.72;100.00
12991;BME280;6560;57.692;11.958;2023-06-14T02:39:28;101927.19;;;12.02;100.00
12991;BME280;6560;57.692;11.958;2023-06-14T02:41:53;101938.34;;;11.47;100.00
12991;BME280;6560;57.692;11.958;2023-06-14T02:44:24;101920.88;;;12.98;100.00
12991;BME280;6560;57.692;11.958;2023-06-14T02:46:50;101926.69;;;13.07;100.00
12991;BME280;6560;57.692;11.958;2023-06-14T02:49:16;101922.97;;;12.88;100.00
12991;BME280;6560;57.692;11.958;2023-06-14T02:51:42;101901.84;;;13.28;100.00
12991;BME280;6560;57.692;11.958;2023-06-14T02:54:09;101907.25;;;14.19;100.00
12991;BME280;6560;57.692;11.958;2023-06-14T02:56:36;101920.41;;;14.90;100.00
12991;BME280;6560;57.692;11.958;2023-06-14T02:59:02;101916.84;;;15.74;100.00
12991;BME280;6560;57.692;11.958;2023-06-14T03:01:27;101924.78;;;15.49;100.00
12991;BME280;6560;57.692;11.958;2023-06-14T03:03:59;101911.84;;;16.28;100.00
12991;BME280;6560;57.692;11.958;2023-06-14T03:06:24;101923.16;;;16.19;100.00
12991;BME280;6560;57.692;11.958;2023-06-14T03:08:50;101881.47;;;16.83;100.00
12991;BME280;6560;57.692;11.958;2023-06-14T03:11:16;101916.38;;;17.02;100.00
12991;BME280;6560;57.692;11.958;2023-06-14T03:13:45;101908.09;;;17.75;100.00
12991;BME280;6560;57.692;11.958;2023-06-14T03:16:12;101870.72;;;18.48;89.10
12991;BME280;6560;57.692;11.958;2023-06-14T03:18:38;101901.13;;;19.03;84.90
12991;BME280;6560;57.692;11.958;2023-06-14T03:21:04;101918.59;;;17.40;95.08
12991;BME280;6560;57.692;11.958;2023-06-14T03:23:30;101909.06;;;17.77;92.94
12991;BME280;6560;57.692;11.958;2023-06-14T03:25:58;101926.00;;;18.00;92.96
12991;BME280;6560;57.692;11.958;2023-06-14T03:28:23;101918.63;;;19.15;91.75
12991;BME280;6560;57.692;11.958;2023-06-14T03:30:49;101906.19;;;19.95;77.07
12991;BME280;6560;57.692;11.958;2023-06-14T03:33:14;101908.16;;;20.02;69.42
12991;BME280;6560;57.692;11.958;2023-06-14T03:35:40;101926.00;;;21.71;69.67
12991;BME280;6560;57.692;11.958;2023-06-14T03:38:06;101908.84;;;21.76;66.83
12991;BME280;6560;57.692;11.958;2023-06-14T03:40:32;101904.00;;;21.05;67.99
12991;BME280;6560;57.692;11.958;2023-06-14T03:42:57;101911.34;;;22.19;65.43
12991;BME280;6560;57.692;11.958;2023-06-14T03:45:23;101918.94;;;21.83;63.08
12991;BME280;6560;57.692;11.958;2023-06-14T03:47:48;101919.75;;;21.24;59.89
12991;BME280;6560;57.692;11.958;2023-06-14T03:50:15;101923.19;;;21.67;61.99
12991;BME280;6560;57.692;11.958;2023-06-14T03:52:40;101914.22;;;22.31;54.78
12991;BME280;6560;57.692;11.958;2023-06-14T03:55:08;101912.75;;;22.56;54.18
12991;BME280;6560;57.692;11.958;2023-06-14T03:57:33;101911.97;;;23.58;51.52
12991;BME280;6560;57.692;11.958;2023-06-14T03:59:59;101909.84;;;24.50;51.50
12991;BME280;6560;57.692;11.958;2023-06-14T04:02:25;101918.28;;;25.29;47.55
12991;BME280;6560;57.692;11.958;2023-06-14T04:04:54;101922.88;;;25.40;46.33
12991;BME280;6560;57.692;11.958;2023-06-14T04:07:19;101922.84;;;25.48;45.73
12991;BME280;6560;57.692;11.958;2023-06-14T04:09:45;101928.34;;;25.58;42.42
12991;BME280;6560;57.692;11.958;2023-06-14T04:12:11;101899.16;;;25.65;43.09
12991;BME280;6560;57.692;11.958;2023-06-14T04:14:39;101913.53;;;26.54;42.23
12991;BME280;6560;57.692;11.958;2023-06-14T04:17:04;101921.78;;;26.52;41.35
12991;BME280;6560;57.692;11.958;2023-06-14T04:19:30;101908.13;;;26.37;43.01
12991;BME280;6560;57.692;11.958;2023-06-14T04:21:55;101925.16;;;27.03;40.67
12991;BME280;6560;57.692;11.958;2023-06-14T04:24:21;101926.97;;;28.14;39.86
12991;BME280;6560;57.692;11.958;2023-06-14T04:26:49;101912.63;;;28.67;37.85
12991;BME280;6560;57.692;11.958;2023-06-14T04:29:15;101896.31;;;30.19;35.35
12991;BME280;6560;57.692;11.958;2023-06-14T04:31:45;101916.50;;;30.64;34.45
12991;BME280;6560;57.692;11.958;2023-06-14T04:34:11;101916.34;;;31.10;34.33
12991;BME280;6560;57.692;11.958;2023-06-14T04:36:42;101909.50;;;31.63;33.28
12991;BME280;6560;57.692;11.958;2023-06-14T04:39:17;101910.50;;;31.59;31.69
12991;BME280;6560;57.692;11.958;2023-06-14T04:41:44;101915.78;;;32.36;31.76
12991;BME280;6560;57.692;11.958;2023-06-14T04:44:09;101921.09;;;33.03;30.73
12991;BME280;6560;57.692;11.958;2023-06-14T04:46:36;101878.63;;;33.58;30.00
12991;BME280;6560;57.692;11.958;2023-06-14T04:49:14;101917.44;;;33.83;30.12
12991;BME280;6560;57.692;11.958;2023-06-14T04:51:41;101865.47;;;33.12;29.46
12991;BME280;6560;57.692;11.958;2023-06-14T04:54:08;101911.63;;;33.37;29.51
12991;BME280;6560;57.692;11.958;2023-06-14T04:56:39;101906.88;;;33.15;29.21
12991;BME280;6560;57.692;11.958;2023-06-14T04:59:05;101913.06;;;32.95;29.36
12991;BME280;6560;57.692;11.958;2023-06-14T05:01:31;101880.50;;;34.33;28.66
12991;BME280;6560;57.692;11.958;2023-06-14T05:03:59;101885.59;;;34.21;28.48
12991;BME280;6560;57.692;11.958;2023-06-14T05:06:25;101905.66;;;33.51;28.23
12991;BME280;6560;57.692;11.958;2023-06-14T05:08:54;101915.06;;;33.46;29.38
12991;BME280;6560;57.692;11.958;2023-06-14T05:11:39;101912.09;;;33.78;28.66
12991;BME280;6560;57.692;11.958;2023-06-14T05:14:05;101910.91;;;34.60;27.79
12991;BME280;6560;57.692;11.958;2023-06-14T05:16:31;101900.81;;;33.83;27.20
12991;BME280;6560;57.692;11.958;2023-06-14T05:18:57;101919.94;;;33.65;28.55
12991;BME280;6560;57.692;11.958;2023-06-14T05:21:23;101922.25;;;32.03;28.36
12991;BME280;6560;57.692;11.958;2023-06-14T05:23:48;101898.28;;;32.36;29.74
12991;BME280;6560;57.692;11.958;2023-06-14T05:26:16;101922.25;;;32.65;29.46
12991;BME280;6560;57.692;11.958;2023-06-14T05:28:41;101911.50;;;32.25;29.37
12991;BME280;6560;57.692;11.958;2023-06-14T05:31:27;101899.84;;;31.81;30.38
12991;BME280;6560;57.692;11.958;2023-06-14T05:33:53;101915.53;;;32.11;30.06
12991;BME280;6560;57.692;11.958;2023-06-14T05:36:19;101915.44;;;32.16;29.89
12991;BME280;6560;57.692;11.958;2023-06-14T05:38:46;101915.19;;;30.80;31.29
12991;BME280;6560;57.692;11.958;2023-06-14T05:41:12;101903.38;;;31.14;31.70
12991;BME280;6560;57.692;11.958;2023-06-14T05:43:39;101918.19;;;31.48;30.73
12991;BME280;6560;57.692;11.958;2023-06-14T05:46:05;101918.44;;;31.73;31.22
12991;BME280;6560;57.692;11.958;2023-06-14T05:48:30;101918.44;;;32.70;30.77
12991;BME280;6560;57.692;11.958;2023-06-14T05:50:56;101922.69;;;32.51;31.17
12991;BME280;6560;57.692;11.958;2023-06-14T05:53:22;101924.94;;;32.97;30.45
12991;BME280;6560;57.692;11.958;2023-06-14T05:55:50;101905.78;;;33.20;30.30
12991;BME280;6560;57.692;11.958;2023-06-14T05:58:17;101914.69;;;33.56;30.02
12991;BME280;6560;57.692;11.958;2023-06-14T06:00:42;101907.16;;;33.61;29.93
12991;BME280;6560;57.692;11.958;2023-06-14T06:03:08;101909.97;;;33.60;30.10
12991;BME280;6560;57.692;11.958;2023-06-14T06:05:36;101900.69;;;33.87;29.96
12991;BME280;6560;57.692;11.958;2023-06-14T06:08:02;101914.59;;;34.35;29.64
12991;BME280;6560;57.692;11.958;2023-06-14T06:10:27;101856.81;;;34.00;29.37
12991;BME280;6560;57.692;11.958;2023-06-14T06:12:52;101902.09;;;33.20;29.29
12991;BME280;6560;57.692;11.958;2023-06-14T06:15:20;101908.88;;;33.10;30.08
12991;BME280;6560;57.692;11.958;2023-06-14T06:17:45;101905.53;;;32.40;30.85
12991;BME280;6560;57.692;11.958;2023-06-14T06:20:11;101905.44;;;33.29;30.38
12991;BME280;6560;57.692;11.958;2023-06-14T06:22:37;101900.22;;;33.74;29.32
12991;BME280;6560;57.692;11.958;2023-06-14T06:25:03;101902.69;;;33.82;29.77
12991;BME280;6560;57.692;11.958;2023-06-14T06:27:29;101901.97;;;34.75;28.84
12991;BME280;6560;57.692;11.958;2023-06-14T06:29:55;101896.56;;;33.20;29.74
12991;BME280;6560;57.692;11.958;2023-06-14T06:32:21;101909.53;;;32.59;30.68
12991;BME280;6560;57.692;11.958;2023-06-14T06:34:46;101918.81;;;33.43;29.30
12991;BME280;6560;57.692;11.958;2023-06-14T06:37:13;101888.56;;;34.14;28.89
12991;BME280;6560;57.692;11.958;2023-06-14T06:39:39;101914.94;;;34.26;28.16
12991;BME280;6560;57.692;11.958;2023-06-14T06:42:05;101926.22;;;34.46;27.98
12991;BME280;6560;57.692;11.958;2023-06-14T06:45:18;101916.91;;;50.23;28.61
12991;BME280;6560;57.692;11.958;2023-06-14T06:47:43;101926.03;;;49.75;28.38
12991;BME280;6560;57.692;11.958;2023-06-14T06:50:09;101930.28;;;48.75;29.34
12991;BME280;6560;57.692;11.958;2023-06-14T06:53:13;101918.75;;;31.61;30.77
12991;BME280;6560;57.692;11.958;2023-06-14T06:55:39;101925.13;;;31.98;30.39
12991;BME280;6560;57.692;11.958;2023-06-14T06:58:31;101922.69;;;32.82;29.78
12991;BME280;6560;57.692;11.958;2023-06-14T07:00:58;101914.53;;;33.87;29.08
12991;BME280;6560;57.692;11.958;2023-06-14T07:17:06;101926.41;;;42.65;27.99
12991;BME280;6560;57.692;11.958;2023-06-14T07:19:32;101929.56;;;43.24;27.27
12991;BME280;6560;57.692;11.958;2023-06-14T07:21:58;101911.69;;;42.86;27.26
12991;BME280;6560;57.692;11.958;2023-06-14T07:24:23;101920.44;;;42.52;27.46
12991;BME280;6560;57.692;11.958;2023-06-14T07:26:49;101916.69;;;42.29;26.82
12991;BME280;6560;57.692;11.958;2023-06-14T07:29:15;101925.84;;;42.55;26.84
12991;BME280;6560;57.692;11.958;2023-06-14T07:31:41;101916.59;;;43.02;26.97
12991;BME280;6560;57.692;11.958;2023-06-14T07:34:07;101924.38;;;43.15;26.51
12991;BME280;6560;57.692;11.958;2023-06-14T07:36:32;101927.16;;;42.69;26.58
12991;BME280;6560;57.692;11.958;2023-06-14T07:38:58;101926.59;;;42.84;26.49
12991;BME280;6560;57.692;11.958;2023-06-14T07:41:25;101922.47;;;42.94;26.16
12991;BME280;6560;57.692;11.958;2023-06-14T07:43:51;101906.50;;;42.77;26.12
12991;BME280;6560;57.692;11.958;2023-06-14T07:46:16;101922.66;;;43.56;26.07
12991;BME280;6560;57.692;11.958;2023-06-14T07:48:42;101915.44;;;43.72;25.11
12991;BME280;6560;57.692;11.958;2023-06-14T07:51:07;101922.31;;;43.20;25.11
12991;BME280;6560;57.692;11.958;2023-06-14T07:53:33;101920.09;;;43.52;25.06
12991;BME280;6560;57.692;11.958;2023-06-14T07:55:59;101920.09;;;43.07;24.90
12991;BME280;6560;57.692;11.958;2023-06-14T07:58:25;101927.56;;;43.72;24.74
12991;BME280;6560;57.692;11.958;2023-06-14T08:00:51;101899.84;;;43.90;25.03
12991;BME280;6560;57.692;11.958;2023-06-14T08:03:16;101927.34;;;43.32;25.24
12991;BME280;6560;57.692;11.958;2023-06-14T08:05:43;101923.94;;;43.69;25.07
12991;BME280;6560;57.692;11.958;2023-06-14T08:08:09;101926.69;;;43.04;25.02
12991;BME280;6560;57.692;11.958;2023-06-14T08:10:34;101931.69;;;42.94;24.86
12991;BME280;6560;57.692;11.958;2023-06-14T08:13:00;101932.09;;;42.61;25.04
12991;BME280;6560;57.692;11.958;2023-06-14T08:15:27;101932.50;;;42.75;25.11
12991;BME280;6560;57.692;11.958;2023-06-14T08:17:52;101935.00;;;42.58;24.87
12991;BME280;6560;57.692;11.958;2023-06-14T08:20:18;101930.72;;;42.96;24.63
12991;BME280;6560;57.692;11.958;2023-06-14T08:22:43;101928.09;;;43.38;24.77
12991;BME280;6560;57.692;11.958;2023-06-14T08:25:11;101918.56;;;42.53;24.54
12991;BME280;6560;57.692;11.958;2023-06-14T08:27:37;101922.81;;;43.08;24.29
12991;BME280;6560;57.692;11.958;2023-06-14T08:30:03;101927.78;;;44.28;23.76
12991;BME280;6560;57.692;11.958;2023-06-14T08:32:29;101904.25;;;43.32;23.72
12991;BME280;6560;57.692;11.958;2023-06-14T08:34:54;101917.66;;;43.43;23.71
12991;BME280;6560;57.692;11.958;2023-06-14T08:37:20;101924.81;;;43.05;23.83
12991;BME280;6560;57.692;11.958;2023-06-14T08:39:46;101927.78;;;42.53;23.61
12991;BME280;6560;57.692;11.958;2023-06-14T08:42:12;101913.25;;;42.47;23.77
12991;BME280;6560;57.692;11.958;2023-06-14T08:44:39;101914.13;;;43.17;23.27
12991;BME280;6560;57.692;11.958;2023-06-14T08:47:07;101930.44;;;42.57;23.51
12991;BME280;6560;57.692;11.958;2023-06-14T08:49:33;101914.03;;;42.50;23.29
12991;BME280;6560;57.692;11.958;2023-06-14T08:52:01;101925.50;;;42.88;22.91
12991;BME280;6560;57.692;11.958;2023-06-14T08:54:31;101894.88;;;43.56;22.60
12991;BME280;6560;57.692;11.958;2023-06-14T08:56:59;101913.47;;;43.54;22.72
12991;BME280;6560;57.692;11.958;2023-06-14T08:59:28;101906.50;;;43.22;22.92
12991;BME280;6560;57.692;11.958;2023-06-14T09:01:56;101902.56;;;43.28;22.90
12991;BME280;6560;57.692;11.958;2023-06-14T09:04:22;101916.13;;;43.14;23.34
12991;BME280;6560;57.692;11.958;2023-06-14T09:06:49;101909.25;;;42.54;23.21
12991;BME280;6560;57.692;11.958;2023-06-14T09:09:20;101913.72;;;43.48;23.00
12991;BME280;6560;57.692;11.958;2023-06-14T09:11:46;101916.25;;;42.64;22.92
12991;BME280;6560;57.692;11.958;2023-06-14T09:14:18;101918.63;;;42.98;23.57
12991;BME280;6560;57.692;11.958;2023-06-14T09:16:44;101912.41;;;42.45;24.53
12991;BME280;6560;57.692;11.958;2023-06-14T09:19:21;101900.03;;;42.29;24.66
12991;BME280;6560;57.692;11.958;2023-06-14T09:21:48;101914.31;;;42.43;24.65
12991;BME280;6560;57.692;11.958;2023-06-14T09:24:14;101909.13;;;42.09;25.23
12991;BME280;6560;57.692;11.958;2023-06-14T09:26:40;101912.28;;;41.46;26.36
12991;BME280;6560;57.692;11.958;2023-06-14T09:29:06;101903.97;;;41.46;25.99
12991;BME280;6560;57.692;11.958;2023-06-14T09:31:31;101909.13;;;41.02;26.86
12991;BME280;6560;57.692;11.958;2023-06-14T09:33:58;101909.91;;;41.06;27.08
12991;BME280;6560;57.692;11.958;2023-06-14T09:36:27;101891.03;;;40.90;27.31
12991;BME280;6560;57.692;11.958;2023-06-14T09:38:59;101896.09;;;39.48;29.37
12991;BME280;6560;57.692;11.958;2023-06-14T09:41:38;101907.78;;;38.82;30.20
12991;BME280;6560;57.692;11.958;2023-06-14T09:44:06;101916.50;;;38.62;30.68
12991;BME280;6560;57.692;11.958;2023-06-14T09:46:33;101905.41;;;38.21;30.99
12991;BME280;6560;57.692;11.958;2023-06-14T09:49:01;101909.09;;;37.74;31.25
12991;BME280;6560;57.692;11.958;2023-06-14T09:51:28;101918.06;;;37.85;30.59
12991;BME280;6560;57.692;11.958;2023-06-14T09:54:00;101912.06;;;38.11;30.79
12991;BME280;6560;57.692;11.958;2023-06-14T09:56:37;101904.97;;;37.47;31.45
12991;BME280;6560;57.692;11.958;2023-06-14T09:59:09;101921.50;;;37.45;31.58
12991;BME280;6560;57.692;11.958;2023-06-14T10:01:36;101919.97;;;37.28;32.46
12991;BME280;6560;57.692;11.958;2023-06-14T10:04:06;101916.72;;;37.00;32.60
12991;BME280;6560;57.692;11.958;2023-06-14T10:06:40;101919.19;;;36.52;33.22
12991;BME280;6560;57.692;11.958;2023-06-14T10:09:10;101903.97;;;36.24;33.94
12991;BME280;6560;57.692;11.958;2023-06-14T10:11:36;101915.00;;;36.21;33.97
12991;BME280;6560;57.692;11.958;2023-06-14T10:14:07;101913.56;;;35.83;35.25
12991;BME280;6560;57.692;11.958;2023-06-14T10:16:56;101910.38;;;36.24;34.86
12991;BME280;6560;57.692;11.958;2023-06-14T10:22:11;101898.25;;;35.56;35.58
12991;BME280;6560;57.692;11.958;2023-06-14T10:24:44;101908.59;;;35.24;36.33
12991;BME280;6560;57.692;11.958;2023-06-14T10:27:13;101908.50;;;35.32;35.81
12991;BME280;6560;57.692;11.958;2023-06-14T10:32:24;101872.38;;;34.72;37.07
12991;BME280;6560;57.692;11.958;2023-06-14T10:35:01;101900.63;;;34.85;36.96
12991;BME280;6560;57.692;11.958;2023-06-14T10:37:29;101894.91;;;35.21;36.41
12991;BME280;6560;57.692;11.958;2023-06-14T10:39:54;101885.97;;;34.89;36.70
12991;BME280;6560;57.692;11.958;2023-06-14T10:42:20;101893.13;;;35.11;36.25
12991;BME280;6560;57.692;11.958;2023-06-14T10:44:51;101890.56;;;34.85;36.32
12991;BME280;6560;57.692;11.958;2023-06-14T10:47:23;101886.91;;;34.85;35.59
12991;BME280;6560;57.692;11.958;2023-06-14T10:50:06;101884.97;;;35.00;36.11
12991;BME280;6560;57.692;11.958;2023-06-14T10:52:39;101880.47;;;34.92;35.20
12991;BME280;6560;57.692;11.958;2023-06-14T10:55:19;101881.34;;;34.98;35.48
12991;BME280;6560;57.692;11.958;2023-06-14T10:57:49;101876.00;;;34.75;35.24
12991;BME280;6560;57.692;11.958;2023-06-14T11:00:27;101877.63;;;35.04;34.48
12991;BME280;6560;57.692;11.958;2023-06-14T11:05:56;101872.88;;;35.30;34.48
12991;BME280;6560;57.692;11.958;2023-06-14T11:11:09;101867.41;;;35.27;33.41
12991;BME280;6560;57.692;11.958;2023-06-14T11:13:41;101853.84;;;35.06;34.16
12991;BME280;6560;57.692;11.958;2023-06-14T11:16:11;101869.19;;;35.34;32.90
12991;BME280;6560;57.692;11.958;2023-06-14T11:18:37;101860.78;;;35.52;32.83
12991;BME280;6560;57.692;11.958;2023-06-14T11:21:03;101852.56;;;35.51;32.57
12991;BME280;6560;57.692;11.958;2023-06-14T11:23:29;101869.97;;;35.47;32.20
12991;BME280;6560;57.692;11.958;2023-06-14T11:25:54;101854.34;;;35.56;31.87
12991;BME280;6560;57.692;11.958;2023-06-14T11:28:21;101849.19;;;35.17;31.34
12991;BME280;6560;57.692;11.958;2023-06-14T11:30:48;101839.06;;;35.27;30.86
12991;BME280;6560;57.692;11.958;2023-06-14T11:33:39;101842.59;;;35.39;29.94
12991;BME280;6560;57.692;11.958;2023-06-14T11:36:06;101840.50;;;35.67;29.44
12991;BME280;6560;57.692;11.958;2023-06-14T11:38:36;101824.03;;;35.67;29.05
12991;BME280;6560;57.692;11.958;2023-06-14T11:41:05;101798.47;;;35.62;29.15
12991;BME280;6560;57.692;11.958;2023-06-14T11:43:32;101845.66;;;35.03;30.21
12991;BME280;6560;57.692;11.958;2023-06-14T11:46:00;101835.69;;;34.90;29.84
12991;BME280;6560;57.692;11.958;2023-06-14T11:48:42;101834.56;;;35.21;29.93
12991;BME280;6560;57.692;11.958;2023-06-14T11:51:07;101833.78;;;34.99;31.03
12991;BME280;6560;57.692;11.958;2023-06-14T11:53:35;101827.38;;;35.02;30.36
12991;BME280;6560;57.692;11.958;2023-06-14T11:56:01;101837.38;;;35.07;30.26
12991;BME280;6560;57.692;11.958;2023-06-14T11:58:27;101830.13;;;35.02;30.59
12991;BME280;6560;57.692;11.958;2023-06-14T12:00:54;101829.31;;;34.88;31.04
12991;BME280;6560;57.692;11.958;2023-06-14T12:03:23;101799.81;;;33.23;32.38
12991;BME280;6560;57.692;11.958;2023-06-14T12:06:03;101802.44;;;33.69;33.08
12991;BME280;6560;57.692;11.958;2023-06-14T12:08:36;101797.94;;;33.16;32.60
12991;BME280;6560;57.692;11.958;2023-06-14T12:11:06;101819.84;;;33.12;31.95
12991;BME280;6560;57.692;11.958;2023-06-14T12:13:38;101820.72;;;32.96;32.85
12991;BME280;6560;57.692;11.958;2023-06-14T12:16:04;101828.09;;;33.21;32.60
12991;BME280;6560;57.692;11.958;2023-06-14T12:18:35;101829.84;;;32.84;33.60
12991;BME280;6560;57.692;11.958;2023-06-14T12:21:02;101824.31;;;32.66;33.56
12991;BME280;6560;57.692;11.958;2023-06-14T12:23:47;101824.38;;;32.89;34.08
12991;BME280;6560;57.692;11.958;2023-06-14T12:26:17;101814.38;;;33.12;33.50
12991;BME280;6560;57.692;11.958;2023-06-14T12:28:46;101791.59;;;33.11;34.18
12991;BME280;6560;57.692;11.958;2023-06-14T12:31:14;101805.25;;;33.13;34.10
12991;BME280;6560;57.692;11.958;2023-06-14T12:33:40;101825.31;;;33.00;34.22
12991;BME280;6560;57.692;11.958;2023-06-14T12:36:10;101793.44;;;33.20;33.61
12991;BME280;6560;57.692;11.958;2023-06-14T12:38:36;101785.22;;;32.67;34.20
12991;BME280;6560;57.692;11.958;2023-06-14T12:41:03;101814.38;;;32.75;34.41
12991;BME280;6560;57.692;11.958;2023-06-14T12:43:28;101802.53;;;33.07;33.21
12991;BME280;6560;57.692;11.958;2023-06-14T12:45:54;101787.06;;;32.75;33.53
12991;BME280;6560;57.692;11.958;2023-06-14T12:48:20;101777.94;;;33.05;32.63
12991;BME280;6560;57.692;11.958;2023-06-14T12:50:45;101803.44;;;33.03;32.70
12991;BME280;6560;57.692;11.958;2023-06-14T12:53:11;101805.25;;;32.81;33.65
12991;BME280;6560;57.692;11.958;2023-06-14T12:55:38;101773.34;;;32.56;32.98
12991;BME280;6560;57.692;11.958;2023-06-14T12:58:04;101773.34;;;32.60;33.43
12991;BME280;6560;57.692;11.958;2023-06-14T13:00:31;101787.97;;;32.74;33.29
12991;BME280;6560;57.692;11.958;2023-06-14T13:02:57;101783.31;;;32.57;33.07
12991;BME280;6560;57.692;11.958;2023-06-14T13:05:23;101797.97;;;32.86;32.90
12991;BME280;6560;57.692;11.958;2023-06-14T13:07:50;101779.72;;;32.76;33.53
12991;BME280;6560;57.692;11.958;2023-06-14T13:10:17;101785.22;;;32.99;32.94
12991;BME280;6560;57.692;11.958;2023-06-14T13:12:43;101789.78;;;33.00;33.17
12991;BME280;6560;57.692;11.958;2023-06-14T13:15:09;101753.34;;;32.86;32.85
12991;BME280;6560;57.692;11.958;2023-06-14T13:17:35;101777.03;;;32.99;31.98